createdAt,value
2022-10-03T00:03:50.748Z,99.90
2022-10-03T00:06:03.624Z,99.90
2022-10-03T00:08:14.533Z,99.90
2022-10-03T00:10:30.625Z,99.90
2022-10-03T00:12:49.048Z,99.90
2022-10-03T00:15:02.846Z,99.90
2022-10-03T00:17:11.669Z,99.90
2022-10-03T00:19:25.717Z,99.90
2022-10-03T00:21:42.615Z,99.90
2022-10-03T00:23:56.017Z,99.90
2022-10-03T00:26:25.630Z,99.90
2022-10-03T00:28:51.466Z,99.90
2022-10-03T00:31:09.470Z,99.90
2022-10-03T00:33:21.899Z,99.90
2022-10-03T00:35:42.104Z,99.90
2022-10-03T00:37:55.107Z,99.90
2022-10-03T00:42:55.764Z,99.90
2022-10-03T00:52:28.186Z,99.90
2022-10-03T00:54:53.623Z,99.90
2022-10-03T00:57:13.352Z,99.90
2022-10-03T00:59:33.567Z,99.90
2022-10-03T01:01:44.012Z,99.90
2022-10-03T01:03:54.708Z,99.90
2022-10-03T01:12:47.343Z,99.90
2022-10-03T01:15:05.344Z,99.90
2022-10-03T01:17:19.754Z,99.90
2022-10-03T01:20:01.137Z,99.90
2022-10-03T01:22:28.623Z,99.90
2022-10-03T01:24:52.234Z,99.90
2022-10-03T01:29:26.796Z,99.90
2022-10-03T01:31:39.555Z,99.90
2022-10-03T01:33:47.598Z,99.90
2022-10-03T01:35:57.832Z,99.90
2022-10-03T01:38:15.610Z,99.90
2022-10-03T01:40:27.325Z,99.90
2022-10-03T01:42:42.699Z,99.90
2022-10-03T01:45:10.359Z,99.90
2022-10-03T01:47:27.299Z,99.90
2022-10-03T01:49:38.425Z,99.90
2022-10-03T01:51:49.756Z,99.90
2022-10-03T01:54:08.860Z,99.90
2022-10-03T01:56:20.203Z,99.90
2022-10-03T01:58:31.413Z,99.90
2022-10-03T02:00:46.809Z,99.90
2022-10-03T02:02:56.264Z,99.90
2022-10-03T02:05:08.721Z,99.90
2022-10-03T02:07:23.220Z,99.90
2022-10-03T02:09:36.647Z,99.90
2022-10-03T02:11:54.170Z,99.90
2022-10-03T02:14:06.485Z,99.90
2022-10-03T02:16:19.524Z,99.90
2022-10-03T02:18:31.218Z,99.90
2022-10-03T02:22:48.403Z,99.90
2022-10-03T02:29:45.576Z,99.90
2022-10-03T02:32:28.438Z,99.90
2022-10-03T02:34:49.564Z,99.90
2022-10-03T02:37:32.035Z,99.90
2022-10-03T02:40:08.687Z,99.90
2022-10-03T02:42:51.533Z,99.90
2022-10-03T02:45:13.348Z,99.90
2022-10-03T02:47:46.424Z,99.90
2022-10-03T02:50:23.395Z,99.90
2022-10-03T02:53:04.957Z,99.90
2022-10-03T02:55:33.119Z,99.90
2022-10-03T02:58:03.168Z,99.90
2022-10-03T03:02:43.505Z,99.90
2022-10-03T03:05:37.007Z,99.90
2022-10-03T03:08:18.746Z,99.90
2022-10-03T03:11:01.939Z,99.90
2022-10-03T03:13:41.176Z,99.90
2022-10-03T03:16:10.666Z,99.90
2022-10-03T03:18:25.922Z,99.90
2022-10-03T03:20:54.102Z,99.90
2022-10-03T03:23:19.018Z,99.90
2022-10-03T03:25:36.852Z,99.90
2022-10-03T03:27:50.605Z,99.90
2022-10-03T03:32:12.040Z,99.90
2022-10-03T03:34:23.753Z,99.90
2022-10-03T03:36:37.079Z,99.90
2022-10-03T03:38:47.628Z,99.90
2022-10-03T03:43:14.627Z,99.90
2022-10-03T03:45:36.454Z,99.90
2022-10-03T03:48:01.596Z,99.90
2022-10-03T03:50:22.051Z,99.90
2022-10-03T03:52:42.657Z,99.90
2022-10-03T03:55:09.542Z,99.90
2022-10-03T03:57:24.206Z,99.90
2022-10-03T03:59:46.442Z,99.90
2022-10-03T04:04:34.728Z,99.90
2022-10-03T04:06:51.478Z,99.90
2022-10-03T04:09:19.148Z,99.90
2022-10-03T04:11:34.429Z,99.90
2022-10-03T04:13:51.579Z,99.90
2022-10-03T04:21:20.265Z,99.90
2022-10-03T04:23:42.889Z,99.90
2022-10-03T04:26:01.360Z,99.90
2022-10-03T04:28:48.191Z,99.90
2022-10-03T04:31:03.887Z,99.90
2022-10-03T04:33:17.100Z,99.90
2022-10-03T04:35:41.596Z,99.90
2022-10-03T04:37:48.875Z,99.90
2022-10-03T04:40:08.545Z,99.90
2022-10-03T04:42:24.268Z,99.90
2022-10-03T04:44:45.745Z,99.90
2022-10-03T04:47:00.590Z,99.90
2022-10-03T04:49:12.169Z,99.90
2022-10-03T04:51:25.515Z,99.90
2022-10-03T04:53:42.471Z,99.90
2022-10-03T04:55:50.148Z,99.90
2022-10-03T04:58:04.956Z,99.90
2022-10-03T05:00:24.755Z,99.90
2022-10-03T05:02:37.222Z,99.90
2022-10-03T05:04:46.731Z,99.90
2022-10-03T05:07:00.709Z,99.90
2022-10-03T05:09:23.048Z,99.90
2022-10-03T05:11:39.710Z,99.90
2022-10-03T05:13:58.398Z,99.90
2022-10-03T05:16:09.328Z,99.90
2022-10-03T05:18:22.349Z,99.90
2022-10-03T05:20:48.572Z,99.90
2022-10-03T05:23:00.455Z,99.90
2022-10-03T05:25:17.976Z,99.90
2022-10-03T05:27:35.767Z,99.90
2022-10-03T05:31:57.232Z,99.90
2022-10-03T05:34:06.567Z,99.90
2022-10-03T05:36:30.238Z,99.90
2022-10-03T05:39:12.228Z,99.90
2022-10-03T05:41:26.231Z,99.90
2022-10-03T05:43:45.294Z,99.90
2022-10-03T05:46:02.282Z,99.90
2022-10-03T05:48:16.035Z,99.90
2022-10-03T05:52:55.709Z,99.90
2022-10-03T05:57:30.871Z,99.90
2022-10-03T06:00:00.749Z,99.90
2022-10-03T06:07:16.764Z,99.90
2022-10-03T06:09:55.619Z,99.90
2022-10-03T06:14:27.496Z,99.90
2022-10-03T06:16:39.916Z,99.90
2022-10-03T06:19:08.445Z,99.90
2022-10-03T06:24:21.080Z,99.90
2022-10-03T06:27:09.623Z,99.90
2022-10-03T06:29:45.323Z,99.90
2022-10-03T06:34:51.870Z,99.90
2022-10-03T06:37:49.393Z,99.90
2022-10-03T06:40:33.502Z,99.90
2022-10-03T06:43:25.055Z,99.90
2022-10-03T06:48:08.874Z,99.90
2022-10-03T06:50:44.034Z,99.90
2022-10-03T06:53:38.977Z,99.90
2022-10-03T06:58:23.293Z,99.90
2022-10-03T07:00:43.055Z,99.90
2022-10-03T07:05:41.261Z,99.90
2022-10-03T07:08:22.797Z,99.90
2022-10-03T07:13:07.844Z,99.90
2022-10-03T07:16:02.884Z,99.90
2022-10-03T07:18:19.991Z,99.90
2022-10-03T07:20:58.609Z,99.90
2022-10-03T07:23:43.677Z,99.90
2022-10-03T07:26:28.087Z,99.90
2022-10-03T07:28:58.353Z,99.90
2022-10-03T07:31:10.060Z,99.90
2022-10-03T07:34:07.279Z,99.90
2022-10-03T07:41:43.492Z,99.90
2022-10-03T07:44:18.109Z,99.90
2022-10-03T07:55:41.787Z,99.90
2022-10-03T08:00:19.856Z,99.80
2022-10-03T08:02:44.700Z,95.60
2022-10-03T08:14:16.039Z,89.60
2022-10-03T08:16:39.315Z,89.10
2022-10-03T08:19:14.452Z,95.30
2022-10-03T08:21:23.865Z,94.90
2022-10-03T08:26:00.616Z,99.90
2022-10-03T08:28:33.413Z,99.90
2022-10-03T08:30:56.424Z,99.90
2022-10-03T08:33:30.972Z,99.90
2022-10-03T08:36:26.138Z,99.90
2022-10-03T08:38:52.565Z,99.90
2022-10-03T08:50:52.901Z,99.90
2022-10-03T08:53:42.903Z,99.90
2022-10-03T08:56:01.478Z,99.90
2022-10-03T09:08:09.449Z,99.90
2022-10-03T09:10:44.534Z,99.90
2022-10-03T09:13:16.877Z,99.90
2022-10-03T09:15:57.005Z,99.90
2022-10-03T09:18:35.741Z,99.90
2022-10-03T09:21:07.123Z,99.90
2022-10-03T09:33:03.591Z,99.90
2022-10-03T09:40:18.209Z,97.50
2022-10-03T09:43:10.107Z,99.90
2022-10-03T09:47:58.860Z,97.50
2022-10-03T09:52:52.440Z,88.10
2022-10-03T09:55:12.790Z,57.70
2022-10-03T10:21:41.902Z,46.70
2022-10-03T10:33:36.995Z,43.60
2022-10-03T10:53:05.482Z,46.30
2022-10-03T10:56:14.873Z,62.20
2022-10-03T11:01:13.258Z,47.30
2022-10-03T11:04:04.634Z,50.90
2022-10-03T12:15:34.432Z,45.20
2022-10-03T12:17:41.773Z,42.80
2022-10-03T12:20:00.939Z,44.10
2022-10-03T12:22:14.278Z,46.60
2022-10-03T12:26:33.205Z,75.30
2022-10-03T12:28:40.558Z,58.70
2022-10-03T12:30:50.969Z,41.90
2022-10-03T12:33:11.879Z,41.30
2022-10-03T12:35:31.192Z,41.80
2022-10-03T12:37:46.655Z,41.50
2022-10-03T12:42:17.607Z,39.80
2022-10-03T13:17:56.418Z,36.80
2022-10-03T13:22:23.216Z,40.70
2022-10-03T13:24:33.579Z,56.00
2022-10-03T13:26:50.021Z,44.80
2022-10-03T13:29:14.195Z,50.00
2022-10-03T13:31:23.945Z,63.60
2022-10-03T13:35:58.609Z,44.80
2022-10-03T13:38:38.110Z,41.40
2022-10-03T13:40:46.391Z,48.50
2022-10-03T14:04:51.753Z,40.00
2022-10-03T14:13:43.522Z,48.60
2022-10-03T14:15:53.357Z,51.60
2022-10-03T14:18:07.171Z,46.50
2022-10-03T14:26:52.465Z,48.80
2022-10-03T14:33:23.709Z,66.10
2022-10-03T14:35:38.235Z,45.60
2022-10-03T14:37:47.888Z,53.60
2022-10-03T14:40:01.318Z,60.00
2022-10-03T14:42:37.262Z,46.50
2022-10-03T14:44:44.742Z,48.70
2022-10-03T14:46:55.295Z,47.60
2022-10-03T14:49:00.636Z,52.90
2022-10-03T14:57:52.871Z,53.40
2022-10-03T15:02:27.995Z,54.10
2022-10-03T15:04:35.852Z,55.90
2022-10-03T15:06:57.948Z,55.40
2022-10-03T15:09:04.692Z,57.90
2022-10-03T15:11:10.192Z,58.70
2022-10-03T15:13:19.249Z,56.70
2022-10-03T15:15:28.039Z,55.20
2022-10-03T15:17:35.120Z,54.30
2022-10-03T15:19:44.411Z,52.60
2022-10-03T15:23:58.405Z,53.90
2022-10-03T15:26:02.318Z,54.30
2022-10-03T15:28:08.467Z,54.40
2022-10-03T15:30:21.580Z,55.20
2022-10-03T15:32:31.561Z,57.50
2022-10-03T15:34:40.757Z,63.30
2022-10-03T15:36:48.285Z,61.00
2022-10-03T15:38:55.373Z,61.80
2022-10-03T15:41:10.186Z,56.80
2022-10-03T15:43:31.503Z,57.20
2022-10-03T15:45:38.306Z,56.50
2022-10-03T15:47:47.544Z,57.60
2022-10-03T15:49:56.096Z,63.80
2022-10-03T15:52:06.870Z,61.20
2022-10-03T15:54:18.187Z,59.80
2022-10-03T15:56:27.495Z,62.00
2022-10-03T15:58:34.280Z,65.30
2022-10-03T16:02:53.737Z,64.60
2022-10-03T16:11:21.440Z,59.20
2022-10-03T16:13:34.997Z,64.70
2022-10-03T16:17:59.300Z,66.40
2022-10-03T16:20:11.760Z,57.70
2022-10-03T16:22:22.325Z,59.00
2022-10-03T16:24:35.362Z,59.30
2022-10-03T16:26:50.739Z,58.70
2022-10-03T16:29:03.633Z,59.70
2022-10-03T16:31:13.467Z,60.10
2022-10-03T16:33:21.575Z,61.30
2022-10-03T16:35:42.482Z,59.80
2022-10-03T16:37:50.789Z,59.30
2022-10-03T16:39:59.917Z,58.50
2022-10-03T16:42:14.083Z,59.00
2022-10-03T16:44:24.342Z,58.70
2022-10-03T16:46:29.872Z,58.70
2022-10-03T16:48:54.477Z,58.40
2022-10-03T16:50:58.998Z,59.40
2022-10-03T16:53:02.886Z,59.60
2022-10-03T16:55:09.349Z,59.90
2022-10-03T16:57:16.410Z,60.50
2022-10-03T16:59:22.160Z,59.70
2022-10-03T17:01:37.883Z,60.30
2022-10-03T17:03:48.300Z,61.50
2022-10-03T17:05:59.786Z,61.80
2022-10-03T17:08:36.966Z,62.90
2022-10-03T17:10:38.624Z,65.70
2022-10-03T17:12:46.616Z,70.00
2022-10-03T17:14:52.585Z,69.60
2022-10-03T17:17:03.229Z,72.70
2022-10-03T17:19:18.117Z,73.60
2022-10-03T17:21:28.856Z,76.50
2022-10-03T17:23:38.085Z,80.60
2022-10-03T17:25:51.923Z,85.50
2022-10-03T17:27:55.910Z,91.60
2022-10-03T17:30:03.931Z,95.60
2022-10-03T17:32:17.009Z,96.90
2022-10-03T17:34:25.072Z,99.10
2022-10-03T17:36:57.646Z,94.10
2022-10-03T17:39:05.665Z,95.40
2022-10-03T17:41:18.829Z,95.50
2022-10-03T17:43:31.761Z,94.70
2022-10-03T17:45:43.147Z,93.70
2022-10-03T17:47:55.594Z,94.00
2022-10-03T17:50:06.726Z,94.40
2022-10-03T17:52:16.979Z,93.80
2022-10-03T17:54:22.930Z,93.10
2022-10-03T17:56:30.142Z,93.10
2022-10-03T17:58:34.853Z,91.60
2022-10-03T18:01:01.455Z,92.10
2022-10-03T18:03:10.519Z,92.40
2022-10-03T18:05:19.868Z,92.20
2022-10-03T18:07:26.519Z,92.60
2022-10-03T18:09:33.074Z,92.40
2022-10-03T18:11:40.495Z,93.00
2022-10-03T18:13:47.526Z,93.80
2022-10-03T18:16:20.464Z,94.40
2022-10-03T18:18:57.616Z,94.50
2022-10-03T18:21:07.440Z,96.70
2022-10-03T18:23:27.059Z,99.90
2022-10-03T18:26:19.252Z,99.90
2022-10-03T18:28:26.355Z,99.90
2022-10-03T18:30:36.121Z,99.90
2022-10-03T18:32:41.848Z,99.90
2022-10-03T18:34:49.100Z,99.90
2022-10-03T18:36:56.485Z,99.90
2022-10-03T18:39:04.692Z,99.90
2022-10-03T18:41:08.899Z,99.90
2022-10-03T18:45:31.516Z,99.90
2022-10-03T18:47:39.669Z,99.90
2022-10-03T18:49:49.270Z,99.90
2022-10-03T18:52:00.372Z,99.90
2022-10-03T18:54:15.368Z,99.90
2022-10-03T18:58:27.111Z,99.90
2022-10-03T19:00:33.870Z,99.90
2022-10-03T19:04:52.179Z,99.90
2022-10-03T19:06:58.284Z,99.90
2022-10-03T19:09:13.043Z,99.90
2022-10-03T19:11:22.766Z,99.90
2022-10-03T19:13:34.095Z,99.90
2022-10-03T19:15:53.116Z,99.90
2022-10-03T19:18:09.758Z,99.90
2022-10-03T19:20:22.849Z,99.90
2022-10-03T19:22:33.815Z,99.90
2022-10-03T19:24:57.777Z,99.90
2022-10-03T19:27:05.583Z,99.90
2022-10-03T19:29:13.515Z,99.90
2022-10-03T19:31:22.707Z,99.90
2022-10-03T19:33:28.915Z,99.90
2022-10-03T19:35:35.059Z,99.90
2022-10-03T19:37:45.739Z,99.90
2022-10-03T19:39:50.030Z,99.90
2022-10-03T19:44:05.585Z,99.90
2022-10-03T19:46:49.118Z,99.90
2022-10-03T19:49:05.997Z,99.90
2022-10-03T19:51:15.382Z,99.90
2022-10-03T19:53:23.394Z,99.90
2022-10-03T19:55:32.481Z,99.90
2022-10-03T19:57:42.581Z,99.90
2022-10-03T19:59:48.280Z,99.90
2022-10-03T20:01:51.948Z,99.90
2022-10-03T20:03:58.072Z,99.90
2022-10-03T20:06:02.657Z,99.90
2022-10-03T20:08:21.346Z,99.90
2022-10-03T20:10:48.455Z,99.90
2022-10-03T20:12:53.687Z,99.90
2022-10-03T20:15:08.714Z,99.90
2022-10-03T20:17:16.657Z,99.90
2022-10-03T20:21:29.991Z,99.90
2022-10-03T20:23:35.936Z,99.90
2022-10-03T20:25:42.586Z,99.90
2022-10-03T20:27:50.354Z,99.90
2022-10-03T20:30:06.493Z,99.90
2022-10-03T20:32:17.853Z,99.90
2022-10-03T20:34:25.207Z,99.90
2022-10-03T20:36:32.196Z,99.90
2022-10-03T20:38:53.444Z,99.90
2022-10-03T20:41:02.639Z,99.90
2022-10-03T20:43:40.403Z,99.90
2022-10-03T20:45:47.725Z,99.90
2022-10-03T20:48:02.367Z,99.90
2022-10-03T20:50:11.767Z,99.90
2022-10-03T20:52:20.145Z,99.90
2022-10-03T20:54:24.877Z,99.90
2022-10-03T20:56:39.145Z,99.90
2022-10-03T20:58:51.077Z,99.90
2022-10-03T21:01:01.977Z,99.90
2022-10-03T21:03:09.182Z,99.90
2022-10-03T21:05:21.313Z,99.90
2022-10-03T21:07:32.489Z,99.90
2022-10-03T21:09:44.626Z,99.90
2022-10-03T21:11:53.783Z,99.90
2022-10-03T21:14:01.612Z,99.90
2022-10-03T21:16:16.731Z,99.90
2022-10-03T21:18:24.271Z,99.90
2022-10-03T21:20:35.904Z,99.90
2022-10-03T21:22:40.014Z,99.90
2022-10-03T21:24:53.141Z,99.90
2022-10-03T21:26:58.704Z,99.90
2022-10-03T21:29:28.270Z,99.90
2022-10-03T21:31:38.540Z,99.90
2022-10-03T21:33:49.492Z,99.90
2022-10-03T21:35:54.091Z,99.90
2022-10-03T21:38:06.377Z,99.90
2022-10-03T21:40:22.913Z,99.90
2022-10-03T21:42:33.443Z,99.90
2022-10-03T21:44:56.295Z,99.90
2022-10-03T21:47:08.592Z,99.90
2022-10-03T21:49:38.667Z,99.90
2022-10-03T21:52:01.099Z,99.90
2022-10-03T21:54:23.080Z,99.90
2022-10-03T21:56:46.021Z,99.90
2022-10-03T21:59:20.787Z,99.90
2022-10-03T22:03:38.695Z,99.90
2022-10-03T22:07:50.909Z,99.90
2022-10-03T22:09:57.551Z,99.90
2022-10-03T22:12:03.763Z,99.90
2022-10-03T22:20:32.561Z,99.90
2022-10-03T22:22:50.597Z,99.90
2022-10-03T22:25:06.783Z,99.90
2022-10-03T22:27:16.950Z,99.90
2022-10-03T22:33:46.951Z,99.90
2022-10-03T22:35:52.777Z,99.90
2022-10-03T22:37:57.450Z,99.90
2022-10-03T22:40:02.492Z,99.90
2022-10-03T22:42:07.924Z,99.90
2022-10-03T22:44:12.878Z,99.90
2022-10-03T22:46:22.944Z,99.90
2022-10-03T22:48:30.394Z,99.90
2022-10-03T22:50:40.234Z,99.90
2022-10-03T22:52:48.242Z,99.90
2022-10-03T22:54:52.546Z,99.90
2022-10-03T22:56:57.611Z,99.90
2022-10-03T22:59:01.995Z,99.90
2022-10-03T23:01:06.924Z,99.90
2022-10-03T23:03:15.005Z,99.90
2022-10-03T23:05:29.906Z,99.90
2022-10-03T23:07:54.272Z,99.90
2022-10-03T23:10:06.265Z,99.90
2022-10-03T23:12:12.242Z,99.90
2022-10-03T23:14:22.681Z,99.90
2022-10-03T23:16:52.914Z,99.90
2022-10-03T23:19:10.026Z,99.90
2022-10-03T23:21:14.135Z,99.90
2022-10-03T23:23:23.882Z,99.90
2022-10-03T23:27:53.223Z,99.90
2022-10-03T23:30:47.628Z,99.90
2022-10-03T23:35:35.956Z,99.90
2022-10-03T23:37:47.312Z,99.90
2022-10-03T23:40:20.318Z,99.90
2022-10-03T23:42:38.976Z,99.90
2022-10-03T23:44:49.567Z,99.90
2022-10-03T23:46:53.598Z,99.90
2022-10-03T23:48:59.568Z,99.90
2022-10-03T23:51:06.599Z,99.90
2022-10-03T23:53:21.509Z,99.90
2022-10-03T23:55:28.419Z,99.90
2022-10-03T23:57:39.756Z,99.90
2022-10-03T23:59:43.457Z,99.90
